Time;durP1;ratioP1;P1;durP2;ratioP2;P2;SDS_P1;SDS_P2;PMS_P1;PMS_P2;Temp;Humidity;BMP_temperature;BMP_pressure;BME280_temperature;BME280_humidity;BME280_pressure;Samples;Min_cycle;Max_cycle;Signal;HPM_P1;HPM_P2
2024/02/11 00:01:36;;;;;;;21.05;6.50;;;;;;;-8.22;59.05;99864.38;4980759;28;20044;-42
2024/02/11 00:04:02;;;;;;;15.40;5.75;;;;;;;-8.11;59.44;99862.31;5004307;28;20049;-42
2024/02/11 00:06:28;;;;;;;14.52;6.00;;;;;;;-8.46;59.15;99821.38;4988393;28;20084;-42
2024/02/11 00:08:54;;;;;;;19.95;6.72;;;;;;;-8.18;59.40;99866.25;4988306;28;20045;-42
2024/02/11 00:11:21;;;;;;;23.13;6.68;;;;;;;-8.63;59.69;99780.31;4988574;28;20046;-41
2024/02/11 00:13:47;;;;;;;7.22;3.40;;;;;;;-8.40;59.15;99821.63;4988222;28;20409;-42
2024/02/11 00:16:14;;;;;;;20.15;6.50;;;;;;;-8.46;58.99;99816.31;5006028;28;20038;-42
2024/02/11 00:18:41;;;;;;;15.77;5.75;;;;;;;-8.16;59.13;99850.34;5003689;28;20064;-42
2024/02/11 00:21:07;;;;;;;14.88;6.03;;;;;;;-8.26;59.03;99818.00;5006068;28;20128;-41
2024/02/11 00:23:37;;;;;;;15.00;5.22;;;;;;;-7.97;58.72;99854.53;5004847;28;20095;-41
2024/02/11 00:26:06;;;;;;;16.40;5.93;;;;;;;-7.97;58.58;99859.56;5006083;28;20038;-41
2024/02/11 00:28:32;;;;;;;14.45;6.45;;;;;;;-8.06;58.88;99848.25;5004729;28;20104;-41
2024/02/11 00:30:58;;;;;;;17.25;6.13;;;;;;;-7.97;59.18;99844.44;5005692;28;20049;-42
2024/02/11 00:33:24;;;;;;;13.30;5.63;;;;;;;-7.92;58.57;99842.09;5005206;28;20052;-43
2024/02/11 00:35:51;;;;;;;13.32;5.30;;;;;;;-7.85;58.41;99832.31;4972442;28;20050;-43
2024/02/11 00:38:17;;;;;;;18.52;6.50;;;;;;;-7.75;58.73;99836.97;4986679;28;20061;-42
2024/02/11 00:40:43;;;;;;;18.55;4.40;;;;;;;-7.74;58.19;99840.31;4998249;28;20593;-42
2024/02/11 00:43:09;;;;;;;13.80;5.70;;;;;;;-7.78;58.37;99839.34;5005959;28;20632;-42
2024/02/11 00:45:35;;;;;;;16.63;5.05;;;;;;;-7.88;58.16;99838.91;5004677;28;20121;-42
2024/02/11 00:48:03;;;;;;;20.60;6.00;;;;;;;-8.02;58.44;99800.50;4969027;28;20088;-40
2024/02/11 00:50:33;;;;;;;11.70;4.88;;;;;;;-7.78;57.93;99831.78;4968338;28;20080;-41
2024/02/11 00:53:03;;;;;;;8.48;3.85;;;;;;;-7.89;57.84;99827.06;4990835;28;20050;-42
2024/02/11 00:55:30;;;;;;;11.73;4.20;;;;;;;-7.95;57.81;99829.34;5007535;28;20100;-42
2024/02/11 00:57:56;;;;;;;11.38;5.25;;;;;;;-8.33;57.72;99755.56;5009115;28;20096;-43
2024/02/11 01:00:23;;;;;;;14.80;5.75;;;;;;;-8.08;57.45;99812.00;5006524;28;20045;-43
2024/02/11 01:02:49;;;;;;;13.98;5.03;;;;;;;-7.92;58.13;99820.25;5007709;28;20136;-41
2024/02/11 01:05:15;;;;;;;9.80;4.57;;;;;;;-7.82;57.49;99824.00;5008739;28;20069;-41
2024/02/11 01:07:41;;;;;;;15.55;5.07;;;;;;;-7.80;57.73;99818.22;5009272;28;20542;-41
2024/02/11 01:10:10;;;;;;;12.15;4.88;;;;;;;-7.83;57.52;99820.63;4976212;28;20045;-42
2024/02/11 01:12:41;;;;;;;9.60;3.63;;;;;;;-7.92;57.33;99814.34;5007733;28;20049;-42
2024/02/11 01:15:07;;;;;;;12.50;4.75;;;;;;;-8.00;57.19;99808.13;5007805;28;20049;-41
2024/02/11 01:17:34;;;;;;;16.98;6.65;;;;;;;-7.94;57.58;99814.28;5008662;28;20116;-42
2024/02/11 01:20:00;;;;;;;13.48;5.28;;;;;;;-7.89;57.80;99811.94;5008106;28;20079;-43
2024/02/11 01:22:28;;;;;;;12.38;5.10;;;;;;;-7.89;57.32;99815.31;5009059;28;20048;-42
2024/02/11 01:24:53;;;;;;;11.48;5.25;;;;;;;-8.11;57.29;99781.63;5008940;28;20045;-43
2024/02/11 01:27:19;;;;;;;14.43;5.38;;;;;;;-8.04;57.27;99809.66;4989828;28;20050;-42
2024/02/11 01:29:45;;;;;;;16.35;5.60;;;;;;;-8.16;57.47;99807.50;4998205;28;20038;-41
2024/02/11 01:32:11;;;;;;;13.85;5.72;;;;;;;-8.18;57.85;99819.19;4991878;28;20058;-42
2024/02/11 01:34:38;;;;;;;14.07;5.60;;;;;;;-8.20;58.02;99805.66;4997716;28;20144;-42
2024/02/11 01:37:04;;;;;;;17.20;5.35;;;;;;;-8.20;57.84;99797.22;5006884;28;20045;-41
2024/02/11 01:39:30;;;;;;;10.18;4.75;;;;;;;-8.30;57.85;99811.13;4989080;28;20717;-43
2024/02/11 01:41:56;;;;;;;12.85;5.30;;;;;;;-8.31;56.98;99813.59;5006391;28;20111;-40
2024/02/11 01:44:22;;;;;;;14.40;5.80;;;;;;;-8.28;57.17;99796.91;4987051;28;20038;-43
2024/02/11 01:46:48;;;;;;;13.18;5.07;;;;;;;-8.24;56.90;99807.97;4987190;28;20045;-43
2024/02/11 01:49:14;;;;;;;9.55;4.40;;;;;;;-8.51;57.09;99762.34;4992104;28;20038;-43
2024/02/11 01:51:44;;;;;;;12.05;5.47;;;;;;;-8.73;57.10;99721.91;4979295;28;20133;-42
2024/02/11 01:54:14;;;;;;;11.48;4.75;;;;;;;-8.30;57.13;99790.97;4987098;28;20065;-42
2024/02/11 01:56:40;;;;;;;11.73;4.72;;;;;;;-8.40;56.87;99776.25;4971390;28;20038;-43
2024/02/11 01:59:06;;;;;;;14.48;4.78;;;;;;;-8.27;56.52;99802.81;4989396;28;20115;-42
2024/02/11 02:01:33;;;;;;;12.35;5.70;;;;;;;-8.24;56.90;99798.75;4988017;28;20503;-43
2024/02/11 02:03:59;;;;;;;10.48;4.32;;;;;;;-8.75;56.28;99719.34;4954365;28;20074;-42
2024/02/11 02:06:25;;;;;;;12.45;4.65;;;;;;;-8.67;56.55;99755.78;5007406;28;20156;-41
2024/02/11 02:08:52;;;;;;;13.63;4.85;;;;;;;-8.67;56.67;99768.38;5007853;28;20042;-41
2024/02/11 02:11:19;;;;;;;14.38;5.20;;;;;;;-8.53;56.91;99806.78;5007834;28;20461;-42
2024/02/11 02:13:45;;;;;;;16.05;4.72;;;;;;;-8.47;56.77;99803.66;5007927;28;20522;-42
2024/02/11 02:16:14;;;;;;;11.65;5.35;;;;;;;-8.78;56.37;99728.41;5002932;28;20046;-41
2024/02/11 02:18:45;;;;;;;14.63;5.20;;;;;;;-8.27;56.47;99805.34;5007332;28;20049;-42
2024/02/11 02:21:11;;;;;;;10.27;5.10;;;;;;;-8.34;56.40;99811.81;5007944;28;20473;-43
2024/02/11 02:23:37;;;;;;;15.60;6.00;;;;;;;-8.28;56.35;99808.66;5006572;28;20041;-42
2024/02/11 02:26:13;;;;;;;10.23;4.60;;;;;;;-8.22;56.29;99817.34;5006433;28;20398;-41
2024/02/11 02:28:39;;;;;;;13.95;4.60;;;;;;;-8.45;56.28;99782.78;4985492;28;20038;-41
2024/02/11 02:31:07;;;;;;;12.50;5.30;;;;;;;-8.15;56.65;99805.84;4970584;28;20623;-43
2024/02/11 02:33:34;;;;;;;19.17;5.80;;;;;;;-8.09;56.44;99810.28;4985402;28;20072;-42
2024/02/11 02:36:01;;;;;;;17.73;4.95;;;;;;;-8.07;56.12;99807.03;4989254;28;20370;-42
2024/02/11 02:38:27;;;;;;;11.43;5.10;;;;;;;-7.98;55.83;99796.44;5007361;28;20513;-42
2024/02/11 02:40:53;;;;;;;9.93;4.97;;;;;;;-7.97;56.07;99799.03;4989776;28;20510;-42
2024/02/11 02:43:19;;;;;;;9.98;5.10;;;;;;;-8.17;55.84;99767.09;4989787;28;20034;-41
2024/02/11 02:45:45;;;;;;;10.52;4.38;;;;;;;-7.91;56.04;99800.94;5006712;28;20048;-41
2024/02/11 02:48:11;;;;;;;13.82;4.82;;;;;;;-7.87;55.80;99811.22;5006071;28;20057;-42
2024/02/11 02:50:37;;;;;;;15.27;4.95;;;;;;;-8.29;55.36;99737.19;4955774;28;20046;-42
2024/02/11 02:53:03;;;;;;;11.20;5.22;;;;;;;-7.93;55.32;99807.59;5006856;28;20092;-41
2024/02/11 02:55:29;;;;;;;14.75;5.40;;;;;;;-7.98;55.73;99804.88;5006853;28;20041;-43
2024/02/11 02:57:55;;;;;;;12.80;5.22;;;;;;;-8.27;55.91;99755.75;5003233;28;20042;-42
2024/02/11 03:00:21;;;;;;;13.07;5.40;;;;;;;-7.95;55.16;99807.50;4969770;28;20046;-42
2024/02/11 03:02:52;;;;;;;18.27;4.80;;;;;;;-7.91;55.82;99808.50;4988072;28;20034;-42
2024/02/11 03:05:19;;;;;;;11.05;4.70;;;;;;;-7.94;55.26;99801.66;4986587;28;20604;-42
2024/02/11 03:07:45;;;;;;;17.77;5.00;;;;;;;-7.86;55.77;99818.00;4986241;28;20049;-42
2024/02/11 03:10:20;;;;;;;15.50;5.35;;;;;;;-8.06;55.62;99785.19;4985937;28;20054;-42
2024/02/11 03:12:46;;;;;;;16.50;5.55;;;;;;;-7.86;55.30;99815.47;4987304;28;20042;-42
2024/02/11 03:15:12;;;;;;;13.38;4.80;;;;;;;-8.02;55.08;99819.81;4988029;28;20049;-43
2024/02/11 03:17:38;;;;;;;13.13;5.25;;;;;;;-8.17;55.54;99803.28;4973025;28;20058;-41
2024/02/11 03:20:05;;;;;;;14.95;5.47;;;;;;;-8.07;55.43;99813.72;5001803;28;20037;-42
2024/02/11 03:22:31;;;;;;;15.75;5.32;;;;;;;-8.02;55.62;99809.75;4988479;28;20100;-44
2024/02/11 03:24:59;;;;;;;17.08;5.18;;;;;;;-8.04;55.56;99814.72;4995619;28;20038;-43
2024/02/11 03:27:24;;;;;;;15.73;5.65;;;;;;;-8.06;55.75;99797.81;4953149;28;20129;-42
2024/02/11 03:29:50;;;;;;;10.82;4.60;;;;;;;-8.04;55.76;99814.72;4990776;28;20049;-41
2024/02/11 03:32:16;;;;;;;12.20;4.85;;;;;;;-8.24;55.61;99807.97;5005021;28;20514;-42
2024/02/11 03:34:42;;;;;;;10.13;5.28;;;;;;;-8.26;56.02;99807.91;5004151;28;20460;-42
2024/02/11 03:37:08;;;;;;;12.77;5.13;;;;;;;-8.25;56.19;99802.06;5004935;28;20128;-42
2024/02/11 03:39:35;;;;;;;15.13;4.80;;;;;;;-8.35;56.02;99779.84;5003366;28;20048;-42
2024/02/11 03:42:02;;;;;;;12.43;6.07;;;;;;;-8.23;56.10;99803.00;4994379;28;20038;-42
2024/02/11 03:44:28;;;;;;;12.02;4.70;;;;;;;-8.18;56.71;99811.63;4971076;28;20632;-43
2024/02/11 03:46:54;;;;;;;11.15;5.03;;;;;;;-8.24;56.42;99810.50;4985219;28;20153;-43
2024/02/11 03:49:20;;;;;;;10.85;4.88;;;;;;;-8.30;56.04;99793.50;4993423;28;20601;-44
2024/02/11 03:51:46;;;;;;;9.93;4.88;;;;;;;-8.24;56.63;99797.91;5003974;28;20482;-42
2024/02/11 03:54:12;;;;;;;15.05;6.10;;;;;;;-8.30;56.64;99793.50;5005130;28;20054;-43
2024/02/11 03:56:41;;;;;;;13.60;5.80;;;;;;;-8.44;56.58;99786.16;5006139;28;20042;-41
2024/02/11 03:59:10;;;;;;;12.65;5.32;;;;;;;-8.31;56.35;99798.47;5003943;28;20034;-42
2024/02/11 04:01:37;;;;;;;14.05;5.80;;;;;;;-8.30;56.67;99803.56;5005587;28;20096;-43
2024/02/11 04:04:03;;;;;;;12.85;6.32;;;;;;;-8.51;57.32;99769.03;5000632;28;20061;-42
2024/02/11 04:06:30;;;;;;;18.23;5.82;;;;;;;-8.34;56.70;99794.16;4972333;28;20262;-42
2024/02/11 04:08:57;;;;;;;13.52;4.43;;;;;;;-8.41;57.01;99792.19;4972511;28;20099;-43
2024/02/11 04:11:32;;;;;;;15.20;5.93;;;;;;;-8.44;57.02;99796.22;4983544;28;20046;-41
2024/02/11 04:13:59;;;;;;;16.92;5.97;;;;;;;-8.44;57.46;99781.13;4984518;28;20138;-41
2024/02/11 04:16:25;;;;;;;15.40;6.40;;;;;;;-8.46;57.07;99778.50;4997143;28;20049;-42
2024/02/11 04:18:52;;;;;;;14.10;6.43;;;;;;;-8.38;57.71;99791.47;5005944;28;20421;-43
2024/02/11 04:21:20;;;;;;;12.25;5.65;;;;;;;-8.58;57.45;99758.69;4988455;28;20081;-43
2024/02/11 04:23:48;;;;;;;14.40;6.10;;;;;;;-8.60;57.42;99749.38;4985484;28;20116;-43
2024/02/11 04:26:15;;;;;;;18.25;6.57;;;;;;;-8.35;58.10;99792.44;4988581;28;20049;-42
2024/02/11 04:28:41;;;;;;;17.92;5.95;;;;;;;-8.38;57.48;99783.91;4988994;28;20034;-43
2024/02/11 04:31:11;;;;;;;21.70;6.18;;;;;;;-8.40;58.32;99790.53;5003280;28;20140;-42
2024/02/11 04:33:39;;;;;;;15.90;6.30;;;;;;;-8.71;57.83;99758.13;4996322;28;20045;-41
2024/02/11 04:36:12;;;;;;;15.43;5.70;;;;;;;-8.49;58.11;99787.63;4988291;28;20145;-43
2024/02/11 04:38:38;;;;;;;13.57;6.03;;;;;;;-8.50;58.25;99791.78;5009135;28;20465;-42
2024/02/11 04:41:07;;;;;;;15.20;6.38;;;;;;;-8.53;57.74;99791.69;5009813;28;20050;-43
2024/02/11 04:43:34;;;;;;;15.52;6.43;;;;;;;-8.77;58.61;99763.75;5008672;28;20518;-43
2024/02/11 04:46:03;;;;;;;17.33;7.47;;;;;;;-8.56;58.49;99796.56;5008370;28;20041;-40
2024/02/11 04:48:31;;;;;;;14.20;6.53;;;;;;;-8.52;58.36;99795.03;4976360;28;20042;-42
2024/02/11 04:51:01;;;;;;;14.23;6.38;;;;;;;-8.58;58.80;99804.06;4998922;28;20108;-43
2024/02/11 04:53:29;;;;;;;14.35;5.60;;;;;;;-8.78;58.54;99778.78;4988982;28;20045;-43
2024/02/11 04:55:57;;;;;;;15.20;6.22;;;;;;;-8.77;58.73;99799.03;4988716;28;20077;-42
2024/02/11 04:58:26;;;;;;;16.98;5.70;;;;;;;-8.86;58.95;99775.09;4988690;28;20708;-42
2024/02/11 05:00:53;;;;;;;;;;;;;;;-8.72;58.59;99806.78;4981704;28;20054;-41
2024/02/11 05:03:20;;;;;;;16.05;6.47;;;;;;;-8.74;59.17;99813.44;5009326;28;20077;-43
2024/02/11 05:05:47;;;;;;;17.75;6.75;;;;;;;-8.99;59.14;99773.69;5006272;28;20403;-43
2024/02/11 05:08:16;;;;;;;22.05;7.25;;;;;;;-9.01;59.36;99768.59;4988921;28;20041;-42
2024/02/11 05:10:44;;;;;;;17.00;7.03;;;;;;;-8.74;59.32;99809.22;4996617;28;20117;-43
2024/02/11 05:13:13;;;;;;;16.27;6.93;;;;;;;-8.74;59.80;99805.88;4971297;28;20785;-42
2024/02/11 05:15:43;;;;;;;20.67;6.95;;;;;;;-8.78;59.38;99811.53;5009102;28;20076;-42
2024/02/11 05:18:15;;;;;;;23.50;6.68;;;;;;;-8.73;59.89;99823.56;4975074;28;20132;-43
2024/02/11 05:20:42;;;;;;;23.05;6.43;;;;;;;-8.73;59.62;99818.50;5003687;28;20533;-42
2024/02/11 05:23:09;;;;;;;16.67;6.07;;;;;;;-9.18;59.35;99733.41;5006448;28;20124;-43
2024/02/11 05:25:38;;;;;;;18.20;7.47;;;;;;;-8.73;60.03;99816.00;4987590;28;20041;-43
2024/02/11 05:28:09;;;;;;;12.73;6.68;;;;;;;-8.73;59.81;99813.47;4995556;28;20041;-42
2024/02/11 05:30:38;;;;;;;22.13;6.97;;;;;;;-8.73;59.59;99807.56;4991822;28;20042;-42
2024/02/11 05:33:06;;;;;;;16.92;7.57;;;;;;;-8.75;59.36;99807.53;5008664;28;20044;-42
2024/02/11 05:35:37;;;;;;;20.20;6.75;;;;;;;-8.74;59.76;99801.66;5006651;28;20058;-41
2024/02/11 05:38:06;;;;;;;16.65;6.95;;;;;;;-8.73;59.61;99797.50;4982213;28;20423;-41
2024/02/11 05:40:35;;;;;;;18.67;7.03;;;;;;;-8.77;60.03;99799.03;4976611;28;20522;-43
2024/02/11 05:43:01;;;;;;;16.42;6.43;;;;;;;-8.68;60.12;99804.47;5007664;28;20635;-41
2024/02/11 05:45:28;;;;;;;13.65;6.38;;;;;;;-8.83;59.54;99776.09;5008489;28;20045;-42
2024/02/11 05:47:55;;;;;;;15.90;6.22;;;;;;;-8.55;59.61;99797.44;5008715;28;20053;-43
2024/02/11 05:50:22;;;;;;;21.35;7.10;;;;;;;-8.52;59.82;99793.38;5003018;28;20132;-41
2024/02/11 05:52:48;;;;;;;16.65;5.93;;;;;;;-8.43;60.00;99790.41;4966145;28;20634;-43
2024/02/11 05:55:18;;;;;;;17.73;6.35;;;;;;;-8.40;59.73;99785.47;4997589;28;20120;-42
2024/02/11 05:57:47;;;;;;;20.52;7.13;;;;;;;-8.43;59.11;99782.84;4989499;28;20070;-43
2024/02/11 06:00:14;;;;;;;16.35;6.45;;;;;;;-8.32;59.29;99794.25;4964237;28;20042;-43
2024/02/11 06:02:43;;;;;;;13.02;6.97;;;;;;;-8.18;58.76;99796.50;4983277;28;20041;-42
2024/02/11 06:05:12;;;;;;;13.38;5.93;;;;;;;-8.03;59.05;99798.78;5005608;28;20045;-42
2024/02/11 06:07:40;;;;;;;19.67;5.82;;;;;;;-7.92;58.54;99802.59;5008045;28;20130;-42
2024/02/11 06:10:08;;;;;;;17.83;7.55;;;;;;;-7.80;58.83;99800.56;5006688;28;20046;-44
2024/02/11 06:12:35;;;;;;;13.32;6.03;;;;;;;-7.45;58.31;99791.00;4990527;28;20403;-41
2024/02/11 06:15:03;;;;;;;18.77;6.80;;;;;;;-6.94;57.67;99792.94;4998708;28;20042;-44
2024/02/11 06:17:31;;;;;;;17.40;6.43;;;;;;;-6.63;56.79;99788.97;4990717;28;20050;-43
2024/02/11 06:19:58;;;;;;;16.63;6.90;;;;;;;-6.62;56.66;99794.09;4977552;28;20068;-41
2024/02/11 06:22:25;;;;;;;20.85;6.22;;;;;;;-6.63;56.56;99787.31;5004425;28;20081;-43
2024/02/11 06:24:51;;;;;;;17.92;6.85;;;;;;;-6.58;56.23;99793.41;4996895;28;20037;-44
2024/02/11 06:27:18;;;;;;;17.23;6.68;;;;;;;-6.50;56.11;99791.16;4967428;28;20104;-43
2024/02/11 06:29:45;;;;;;;19.27;6.28;;;;;;;-6.34;55.92;99784.94;4994256;28;20136;-42
2024/02/11 06:32:11;;;;;;;14.88;6.90;;;;;;;-6.12;55.72;99785.72;4991041;28;20048;-44
2024/02/11 06:34:38;;;;;;;12.45;5.75;;;;;;;-5.91;55.48;99789.78;4960956;28;20092;-44
2024/02/11 06:37:04;;;;;;;18.55;6.03;;;;;;;-5.82;54.60;99790.03;4995020;28;20038;-43
2024/02/11 06:39:30;;;;;;;16.50;5.75;;;;;;;-5.67;55.23;99796.44;4973473;28;20081;-44
2024/02/11 06:42:02;;;;;;;16.45;6.70;;;;;;;-5.83;54.74;99747.81;4954766;28;20506;-42
2024/02/11 06:44:32;;;;;;;14.18;6.03;;;;;;;-5.53;54.86;99758.03;4991611;28;20111;-42
2024/02/11 06:46:58;;;;;;;17.70;7.22;;;;;;;-5.04;54.22;99752.75;4957471;28;20690;-49
2024/02/11 06:49:25;;;;;;;17.75;6.97;;;;;;;-4.02;52.98;99772.41;4997524;28;20050;-42
2024/02/11 06:51:52;;;;;;;16.60;7.13;;;;;;;-4.10;52.02;99755.28;4994672;28;20089;-42
2024/02/11 06:54:22;;;;;;;15.38;6.78;;;;;;;-3.86;51.71;99776.19;4988005;28;20216;-40
2024/02/11 06:56:49;;;;;;;23.17;7.07;;;;;;;-3.90;51.83;99779.47;4992594;28;20054;-43
2024/02/11 06:59:19;;;;;;;24.35;7.80;;;;;;;-3.82;51.34;99780.50;5006177;28;20049;-42
2024/02/11 07:01:46;;;;;;;17.95;7.18;;;;;;;-3.43;51.48;99775.53;4988936;28;20096;-42
2024/02/11 07:04:12;;;;;;;20.75;7.82;;;;;;;-2.83;50.71;99782.78;5007079;28;20137;-44
2024/02/11 07:06:45;;;;;;;22.42;7.07;;;;;;;-1.71;49.45;99778.06;5002459;28;20168;-42
2024/02/11 07:09:12;;;;;;;21.40;6.63;;;;;;;-0.65;47.81;99763.38;5005115;28;20172;-43
2024/02/11 07:11:41;;;;;;;17.10;7.30;;;;;;;-0.62;47.41;99763.41;5004678;28;20163;-43
2024/02/11 07:14:07;;;;;;;15.75;7.07;;;;;;;-0.96;47.34;99731.53;4989306;28;20037;-42
2024/02/11 07:16:36;;;;;;;13.45;7.00;;;;;;;-1.10;47.29;99737.31;4988640;28;20596;-42
2024/02/11 07:19:03;;;;;;;17.20;7.38;;;;;;;-0.59;47.12;99760.91;4972549;28;20049;-42
2024/02/11 07:21:31;;;;;;;18.42;7.50;;;;;;;-0.96;46.58;99728.13;5002392;28;20060;-42
2024/02/11 07:23:58;;;;;;;14.43;6.70;;;;;;;-0.87;46.56;99733.34;4996168;28;20137;-42
2024/02/11 07:26:24;;;;;;;15.05;6.60;;;;;;;-0.78;46.33;99761.50;4977626;28;20084;-43
2024/02/11 07:28:50;;;;;;;14.57;6.78;;;;;;;-0.87;46.47;99749.50;4997954;28;20128;-43
2024/02/11 07:31:17;;;;;;;15.13;6.65;;;;;;;-0.77;45.88;99704.53;4996148;28;20062;-44
2024/02/11 07:33:43;;;;;;;12.88;6.35;;;;;;;0.19;45.13;99747.19;4999594;28;20042;-43
2024/02/11 07:36:10;;;;;;;11.07;5.43;;;;;;;0.28;44.33;99748.97;4991971;28;20042;-43
2024/02/11 07:38:38;;;;;;;11.57;6.00;;;;;;;-0.04;44.96;99748.69;5000563;28;20041;-42
2024/02/11 07:41:05;;;;;;;14.73;6.30;;;;;;;-0.42;45.30;99751.72;4994294;28;20832;-43
2024/02/11 07:43:32;;;;;;;17.35;6.00;;;;;;;-1.02;45.73;99744.22;4985534;28;20514;-43
2024/02/11 07:45:57;;;;;;;18.63;5.63;;;;;;;-1.40;46.37;99755.56;4969057;28;20046;-44
2024/02/11 07:48:25;;;;;;;11.18;5.38;;;;;;;-2.32;47.01;99694.69;4985214;28;20037;-44
2024/02/11 07:50:51;;;;;;;11.68;4.93;;;;;;;-2.21;47.50;99718.63;4995749;28;20522;-43
2024/02/11 07:53:19;;;;;;;10.13;4.68;;;;;;;-2.68;48.30;99743.22;4953216;28;20323;-42
2024/02/11 07:55:47;;;;;;;11.48;4.70;;;;;;;-3.14;49.11;99748.22;4997705;28;20045;-42
2024/02/11 07:58:13;;;;;;;11.60;4.47;;;;;;;-3.30;49.89;99734.31;4961560;28;20536;-41
2024/02/11 08:00:40;;;;;;;12.90;4.72;;;;;;;-3.39;50.26;99741.72;4997175;28;20717;-41
2024/02/11 08:03:10;;;;;;;10.52;4.00;;;;;;;-3.56;50.82;99760.84;4984810;28;20046;-42
2024/02/11 08:05:35;;;;;;;;;;;;;;;-3.99;51.75;99758.94;5007032;28;20046;-42
2024/02/11 08:08:02;;;;;;;7.60;3.60;;;;;;;-4.31;52.68;99753.94;5005081;28;19924;-42
2024/02/11 08:10:29;;;;;;;6.18;3.40;;;;;;;-4.46;53.28;99760.28;5005567;28;20046;-43
2024/02/11 08:12:55;;;;;;;10.30;4.97;;;;;;;-4.41;53.55;99768.88;4983786;28;20569;-43
2024/02/11 08:15:23;;;;;;;6.72;3.63;;;;;;;-4.53;53.99;99766.84;5003180;28;20034;-44
2024/02/11 08:17:53;;;;;;;8.23;4.03;;;;;;;-4.61;54.54;99759.88;5004922;28;20066;-43
2024/02/11 08:20:19;;;;;;;;;;;;;;;-4.64;54.21;99774.97;5008425;28;20603;-42
2024/02/11 08:22:45;;;;;;;8.95;4.22;;;;;;;-4.71;54.84;99759.59;5000846;28;19918;-44
2024/02/11 08:25:12;;;;;;;13.38;4.38;;;;;;;-4.79;55.06;99748.41;4969382;28;20520;-43
2024/02/11 08:27:40;;;;;;;9.88;3.72;;;;;;;-4.51;54.69;99769.44;4982171;28;20068;-42
2024/02/11 08:30:11;;;;;;;15.52;4.60;;;;;;;-4.55;54.59;99763.41;4959010;28;20501;-43
2024/02/11 08:32:38;;;;;;;14.88;4.57;;;;;;;-4.39;55.22;99754.53;5004175;28;20045;-42
2024/02/11 08:35:05;;;;;;;10.65;4.18;;;;;;;-4.51;54.51;99734.78;4959683;28;20034;-43
2024/02/11 08:37:32;;;;;;;10.15;4.35;;;;;;;-4.32;54.26;99749.66;4995545;28;20093;-44
2024/02/11 08:39:58;;;;;;;8.50;3.95;;;;;;;-4.13;54.34;99719.66;4969234;28;20056;-42
2024/02/11 08:42:27;;;;;;;8.20;4.30;;;;;;;-3.76;54.00;99747.66;4987207;28;20526;-43
2024/02/11 08:44:56;;;;;;;8.65;4.68;;;;;;;-3.70;53.65;99746.94;5005335;28;20034;-43
2024/02/11 08:47:24;;;;;;;;;;;;;;;-3.55;53.60;99743.06;4997089;28;20132;-43
2024/02/11 08:49:51;;;;;;;9.20;4.00;;;;;;;-3.75;53.09;99713.81;5001819;28;20021;-43
2024/02/11 08:52:17;;;;;;;9.95;4.38;;;;;;;-3.60;53.41;99747.19;5002750;28;20066;-42
2024/02/11 08:54:43;;;;;;;11.18;3.70;;;;;;;-3.57;53.37;99754.91;5003184;28;20576;-43
2024/02/11 08:57:14;;;;;;;8.93;4.50;;;;;;;-3.85;53.48;99749.97;4997033;28;20518;-42
2024/02/11 08:59:47;;;;;;;12.55;4.40;;;;;;;-3.65;53.84;99755.53;4998297;28;20048;-42
2024/02/11 09:02:17;;;;;;;11.77;4.55;;;;;;;-3.46;53.60;99745.84;5001875;28;20037;-42
2024/02/11 09:04:43;;;;;;;8.45;3.78;;;;;;;-2.68;53.04;99747.47;5001188;28;20046;-43
2024/02/11 09:07:10;;;;;;;10.88;4.38;;;;;;;-1.32;50.98;99744.66;4991395;28;20822;-43
2024/02/11 09:09:37;;;;;;;7.05;3.83;;;;;;;-0.75;49.44;99717.31;4995156;28;20053;-43
2024/02/11 09:12:03;;;;;;;9.90;4.55;;;;;;;0.26;48.69;99720.81;4975264;28;20135;-44
2024/02/11 09:14:31;;;;;;;7.45;3.72;;;;;;;1.78;46.17;99721.50;5002855;28;20571;-50
2024/02/11 09:16:59;;;;;;;9.00;4.28;;;;;;;3.13;44.61;99715.38;4981605;28;20042;-56
2024/02/11 09:19:26;;;;;;;6.15;3.08;;;;;;;3.92;41.92;99707.22;4982385;28;20049;-51
2024/02/11 09:21:53;;;;;;;10.63;4.53;;;;;;;4.57;42.20;99671.44;4999176;28;20041;-56
2024/02/11 09:24:18;;;;;;;10.05;5.05;;;;;;;5.47;40.79;99697.00;4997104;28;20042;-52
2024/02/11 09:26:45;;;;;;;8.20;4.50;;;;;;;5.64;39.83;99703.66;5005080;28;20091;-53
2024/02/11 09:29:11;;;;;;;23.95;4.97;;;;;;;5.48;39.11;99635.97;5005170;28;20056;-52
2024/02/11 09:31:39;;;;;;;11.77;5.40;;;;;;;6.60;38.63;99701.25;4980747;28;20057;-54
2024/02/11 09:34:08;;;;;;;10.35;5.10;;;;;;;7.85;38.26;99704.69;4994346;28;20180;-54
2024/02/11 09:36:35;;;;;;;12.05;5.93;;;;;;;8.69;36.89;99703.50;4980759;28;20514;-53
2024/02/11 09:39:01;;;;;;;10.00;5.47;;;;;;;9.31;35.59;99706.97;4997541;28;20038;-53
2024/02/11 09:41:30;;;;;;;10.02;5.88;;;;;;;9.86;34.94;99694.06;4992399;28;20145;-60
2024/02/11 09:44:04;;;;;;;11.38;5.57;;;;;;;9.39;33.95;99703.28;4989390;28;20042;-54
2024/02/11 09:46:37;;;;;;;15.38;6.55;;;;;;;8.87;34.78;99699.56;4959256;28;20050;-55
2024/02/11 09:49:20;;;;;;;9.88;5.60;;;;;;;8.61;33.63;99694.22;4987653;28;20044;-50
2024/02/11 09:51:48;;;;;;;13.55;6.10;;;;;;;7.84;34.57;99689.22;4977073;28;20043;-52
2024/02/11 09:54:17;;;;;;;15.27;6.45;;;;;;;7.59;34.82;99689.75;4996429;28;20068;-56
2024/02/11 09:56:44;;;;;;;11.77;6.15;;;;;;;7.95;35.01;99662.19;5000104;28;20068;-48
2024/02/11 09:59:10;;;;;;;12.55;6.78;;;;;;;8.39;35.53;99694.78;4985032;28;20145;-47
2024/02/11 10:01:41;;;;;;;14.05;6.57;;;;;;;7.86;35.64;99664.13;4992989;28;20057;-53
2024/02/11 10:04:09;;;;;;;16.70;7.10;;;;;;;7.11;36.35;99690.81;5005678;28;20261;-49
2024/02/11 10:06:37;;;;;;;13.48;6.35;;;;;;;6.44;36.74;99696.41;4974392;28;20852;-52
2024/02/11 10:09:10;;;;;;;12.68;6.00;;;;;;;5.89;37.10;99694.69;4978284;28;20128;-47
2024/02/11 10:11:38;;;;;;;11.18;6.03;;;;;;;5.22;37.15;99675.00;4988673;28;20431;-46
2024/02/11 10:14:09;;;;;;;16.23;6.40;;;;;;;5.18;37.76;99693.09;4957463;28;20038;-52
2024/02/11 10:16:35;;;;;;;11.02;6.07;;;;;;;5.03;37.75;99694.97;4999979;28;20139;-52
2024/02/11 10:19:02;;;;;;;14.93;6.63;;;;;;;4.69;37.32;99683.34;5005803;28;20125;-43
2024/02/11 10:21:27;;;;;;;12.75;6.45;;;;;;;4.52;37.70;99696.41;5008355;28;20096;-50
2024/02/11 10:23:54;;;;;;;14.07;6.35;;;;;;;4.56;38.16;99687.75;5006329;28;20030;-52
2024/02/11 10:26:21;;;;;;;10.60;5.53;;;;;;;4.61;38.29;99688.56;5007433;28;20033;-52
2024/02/11 10:28:50;;;;;;;12.48;5.75;;;;;;;4.65;38.01;99692.84;4990566;28;20045;-58
2024/02/11 10:31:16;;;;;;;13.90;6.80;;;;;;;4.45;38.02;99683.63;4989074;28;20048;-51
2024/02/11 10:33:42;;;;;;;11.13;5.65;;;;;;;4.66;37.91;99694.53;4999548;28;20046;-51
2024/02/11 10:36:11;;;;;;;11.23;5.90;;;;;;;4.85;37.47;99700.34;5000686;28;20052;-50
2024/02/11 10:38:37;;;;;;;11.40;5.83;;;;;;;4.77;37.52;99689.25;4996455;28;20042;-58
2024/02/11 10:41:03;;;;;;;9.85;4.80;;;;;;;4.64;37.65;99692.84;4992773;28;20129;-52
2024/02/11 10:43:36;;;;;;;10.65;5.45;;;;;;;3.85;37.58;99654.97;4980743;28;20038;-54
2024/02/11 10:46:03;;;;;;;9.20;4.82;;;;;;;3.79;38.23;99679.00;4978175;28;20042;-50
2024/02/11 10:48:29;;;;;;;11.60;5.75;;;;;;;3.80;38.87;99673.00;4995166;28;20053;-50
2024/02/11 10:51:15;;;;;;;14.73;5.25;;;;;;;3.64;38.76;99686.81;4995609;28;20108;-50
2024/02/11 10:53:46;;;;;;;11.85;5.93;;;;;;;3.34;39.08;99690.44;5000778;28;20069;-49
2024/02/11 10:56:15;;;;;;;9.75;5.13;;;;;;;2.52;39.55;99688.16;4994812;28;20045;-48
2024/02/11 10:59:04;;;;;;;11.27;5.10;;;;;;;2.27;40.74;99683.06;4986878;28;20115;-52
2024/02/11 11:01:32;;;;;;;10.00;5.07;;;;;;;2.17;40.68;99683.94;4974652;28;20048;-49
2024/02/11 11:03:59;;;;;;;13.27;5.30;;;;;;;2.10;40.84;99676.22;4999282;28;20082;-53
2024/02/11 11:06:26;;;;;;;8.20;4.28;;;;;;;1.65;41.01;99665.97;4994539;28;20636;-43
2024/02/11 11:08:53;;;;;;;8.75;4.80;;;;;;;1.26;41.83;99685.53;5002739;28;20538;-48
2024/02/11 11:11:26;;;;;;;10.93;4.57;;;;;;;0.96;42.78;99674.31;4989077;28;20042;-51
2024/02/11 11:13:54;;;;;;;8.10;4.55;;;;;;;0.82;43.01;99669.16;5005301;28;20572;-49
2024/02/11 11:16:29;;;;;;;9.73;4.32;;;;;;;0.66;42.98;99618.78;5000836;28;20462;-50
2024/02/11 11:18:55;;;;;;;12.18;4.93;;;;;;;0.84;43.08;99670.00;5006103;28;20059;-54
2024/02/11 11:21:21;;;;;;;8.55;4.40;;;;;;;0.38;43.36;99621.19;4994845;28;20045;-51
2024/02/11 11:23:50;;;;;;;9.02;4.32;;;;;;;0.40;43.69;99626.31;4986734;28;20514;-44
2024/02/11 11:26:23;;;;;;;13.07;5.28;;;;;;;0.47;43.88;99657.91;5005542;28;20171;-44
2024/02/11 11:28:49;;;;;;;9.05;4.03;;;;;;;0.40;43.96;99657.88;5004931;28;20737;-48
2024/02/11 11:31:17;;;;;;;9.85;4.65;;;;;;;0.40;44.40;99642.53;4988673;28;20050;-47